Terminal Aerodrome Forecast
Issued by NWS

Home | Current Version | Previous Version | Text Only | Print | Product List | Glossary On
Versions: 1 2 3 4 5 6 7 8 9 10 11 12 13 14 15 16 17 18
000
FTUS44 KTSA 281700 RRA
TAFXNA
TAF
KXNA 281740Z 2818/0118 11005KT 2SM -SN BR BKN022
      TEMPO 2818/2822 1SM -SN BR OVC018
     FM282300 13003KT 2SM -SN BR OVC015
     FM010200 VRB03KT 4SM -SNPL BR OVC008
      TEMPO 0108/0112 1SM -FZRA BR OVC006
     FM011200 03003KT 2SM -FZDZ BR OVC005=

USA.gov is the U.S. government's official web portal to all federal, state and local government web resources and services.